logo
App data

Bayou Island - Point and Click Adventure

Make your way through this thrilling old school style point and click adventure game and try to solve the mysterious circumstances plaguing Bayou Island.
Store | Hub | SteamDB | Site
Developer: Andy Howard Games Publisher: Publisher: Andy Howard Games
Genre: Adventure, Casual, Indie
Languages: English
Tags: Casual (28), Adventure (23), Indie (22), Point & Click (18), Drama (16), Psychological (15), Puzzle (11), Singleplayer (11), Mystery (11), Atmospheric (11), Funny (10), Exploration (10), Third Person (10), Comedy (10), Great Soundtrack (10), Story Rich (9)
Category: Single-player, Captions available
Release date: Feb 28, 2017
Price: $1.99
Owners: 0 .. 20,000
Followers: 802
Peak concurrent players yesterday: 1
Playtime total: 00:01 (average) 00:01 (median)

Steam Spy is still in beta, so expect major bugs.

Owners data:

Access restricted.

This feature is only available to users with special access rights. Sorry.

If you want to proceed, you need to register or log in first and then back Steam Spy on Patreon. Look for Indie or Pro pledge.

Don't forget to use the same email as on Steam Spy!

Audience in 2 weeks:

Access restricted.

This feature is only available to users with special access rights. Sorry.

If you want to proceed, you need to register or log in first and then back Steam Spy on Patreon. Look for Indie or Pro pledge.

Don't forget to use the same email as on Steam Spy!

Peak daily concurrent players:

CCU data courtesy of SteamDB. Used with permission.

Hourly concurrent players:

YouTube:

The views data is based on top 50 videos uploaded last week. Actual number of views might be more than the number shown.

The displayed number of videos uploaded yesterday is limited to 50, so if there were more videos uploaded, the number will still show 50.

If the game has commonly used word as its name (like "FEAR" or "Volume") its number of Youtube views might be wrong.

Games similar to this one:

# Game Release date
Price
Score rank
(Userscore / Metascore)
Owners
Players
Playtime (Median)
1 Pocket Kingdom Dec 8, 2016 $6.99100% (100%)0 .. 20,0000%00:00 (00:00)
2 Z-Exemplar Nov 25, 2016 $4.99N/A (N/A)0 .. 20,0000%00:00 (00:00)
3 The Sea Will Claim Everything Mar 24, 2016 $9.9997% (97%)0 .. 20,0000%00:00 (00:00)
4 In the Raven Shadow – Ve stínu havrana Jul 11, 2017 $3.99N/A (N/A)0 .. 20,0000%00:00 (00:00)
5 Cosmic Sugar VR Nov 30, 2016 Free93% (95%)50,000 .. 100,0000%00:00 (00:00)
6 OLDTV Jul 14, 2017 Free93% (95%)200,000 .. 500,0000.54%01:55 (00:38)
7 Ballads of Reemus: When the Bed Bites Jan 27, 2012 $4.99N/A (N/A)0 .. 20,0000%00:00 (00:00)
8 The Lonesome Fog Mar 24, 2016 $4.99N/A (N/A)0 .. 20,0000%00:00 (00:00)
9 Dragon Age: Origins Awakening Mar 16, 2010 $9.9983% (92%/82%)100,000 .. 200,0000%00:00 (00:00)
10 Brighter Day Jul 17, 2015 $2.99N/A (N/A)0 .. 20,0000%00:00 (00:00)
11 Pan-Pan Aug 25, 2016 $12.9979% (91%)0 .. 20,0000%00:00 (00:00)
12 Thread Studio Sep 29, 2016 FreeN/A (N/A)0 .. 20,0000%00:00 (00:00)
13 Viridi Aug 19, 2015 Free76% (90%/46%)500,000 .. 1,000,0001.99%00:07 (00:09)
14 Party Jousting Mar 1, 2016 Free76% (90%)100,000 .. 200,0000.7%00:01 (00:00)
15 You Have 10 Seconds Jul 14, 2016 Free76% (90%)200,000 .. 500,0000%00:00 (00:00)
16 Cubixx HD Jan 28, 2016 $8.99N/A (N/A)0 .. 20,0000%00:00 (00:00)
17 Black Ink Feb 8, 2016 $59.9973% (89%)20,000 .. 50,0009.09%00:02 (00:00)
18 Pilot Brothers 2 Dec 31, 2014 $4.99N/A (N/A)0 .. 20,0000%00:00 (00:00)
19 Jacob Jones and the Bigfoot Mystery : Episode 2 Sep 23, 2014 $3.99N/A (N/A)0 .. 20,0000%00:00 (00:00)
20 Nimble Writer Apr 21, 2015 $9.9965% (86%)0 .. 20,0000%00:00 (00:00)
21 SOLITUNE Nov 20, 2016 $1.99N/A (N/A)0 .. 20,0000%00:00 (00:00)
22 VR Gallery Aug 11, 2016 FreeN/A (N/A)20,000 .. 50,0000%00:00 (00:00)
23 The Journey Back Aug 12, 2015 $1.99N/A (N/A)0 .. 20,0000%00:00 (00:00)
24 Foxhole Jul 27, 2017 $19.9952% (81%)100,000 .. 200,0003.45%02:15 (02:12)
25 SVRVIVE: The Deus Helix Nov 17, 2016 $18.9952% (81%)0 .. 20,0000%00:00 (00:00)
26 Call of Cthulhu: Shadow of the Comet Nov 4, 2015 $5.99N/A (N/A)0 .. 20,0000%00:00 (00:00)
27 Fences Mar 29, 2017 $9.9944% (77%)20,000 .. 50,00021.74%00:01 (00:01)
28 Tony Tough and the Night of Roasted Moths Dec 1, 1997 $9.99N/A (N/A/68%)0 .. 20,0000%00:00 (00:00)
29 Just Ignore Them Apr 28, 2017 $3.9941% (75%)0 .. 20,0000%00:00 (00:00)
30 Ambre - a heartbreaking kinetic novel Jun 9, 2017 Free41% (75%)20,000 .. 50,0000%00:00 (00:00)
31 IKEA VR Experience Apr 5, 2016 Free39% (74%)100,000 .. 200,0000%00:00 (00:00)
32 Mausoleum of the Medusa Oct 27, 2016 Free39% (74%)0 .. 20,0000%00:00 (00:00)
33 Call of Cthulhu: Prisoner of Ice Nov 4, 2015 $5.99N/A (N/A)0 .. 20,0000%00:00 (00:00)
34 Tiles & Tales Jan 23, 2017 Free32% (70%)0 .. 20,0000%00:00 (00:00)
35 Wild Warfare Jul 15, 2014 N/A32% (70%)200,000 .. 500,0000%00:00 (00:00)
36 The Revenge of Johnny Bonasera: Episode 1 Nov 1, 2016 $3.99N/A (N/A)0 .. 20,0000%00:00 (00:00)
37 Krita Gemini Jun 10, 2014 $9.9928% (67%)0 .. 20,0000%00:00 (00:00)
38 Unhappy Ever After Jan 20, 2017 $5.99N/A (N/A)0 .. 20,0000%00:00 (00:00)
39 The Morgue Fissure Between Worlds Mar 31, 2017 $0.99N/A (N/A)0 .. 20,0000%00:00 (00:00)
40 Clown2Beat Oct 26, 2016 FreeN/A (N/A)0 .. 20,0000%00:00 (00:00)
41 Lands of Hope Redemption Oct 15, 2015 $1.99N/A (N/A)0 .. 20,0000%00:00 (00:00)
42 CGWallpapers Nov 30, 2016 $4.99N/A (N/A)0 .. 20,0000%00:00 (00:00)
43 Elminage Gothic Sep 18, 2014 $9.9920% (61%)0 .. 20,0000%00:00 (00:00)
44 The Big Secret of a Small Town Oct 22, 2015 $6.9919% (60%)0 .. 20,0000%00:00 (00:00)
45 Mystery Mine May 16, 2017 $3.9916% (57%)100,000 .. 200,0000.33%03:01 (01:00)
46 Pilot Brothers 3: Back Side of the Earth Jan 22, 2015 $4.99N/A (N/A)0 .. 20,0000%00:00 (00:00)
47 Torn Tales Jan 17, 2017 $12.99N/A (N/A)20,000 .. 50,0000%00:00 (00:00)
48 Escape The Lost Kingdom: The Forgotten Pharaoh Aug 6, 2010 $4.9915% (55%)20,000 .. 50,0000%00:00 (00:00)
49 Multiplayer FPS Demo Jul 6, 2017 Free14% (54%)50,000 .. 100,0002.63%00:11 (00:03)
50 Fractasia Nov 17, 2016 FreeN/A (N/A)0 .. 20,0000%00:00 (00:00)
51 Playing History: Vikings Jul 1, 2015 $2.99N/A (N/A)20,000 .. 50,0000%00:00 (00:00)
52 D.W.A.R.F.S. Oct 6, 2008 $5.99N/A (N/A)0 .. 20,0000%00:00 (00:00)
53 After Life - Story of a Father Nov 25, 2016 $5.99N/A (N/A)0 .. 20,0000%00:00 (00:00)
54 De-Void Sep 2, 2016 $7.999% (47%)20,000 .. 50,0006.67%05:15 (05:30)
55 Astro Lords: Oort Cloud Jan 15, 2016 FreeN/A (N/A)50,000 .. 100,0000%00:00 (00:00)
56 Ways of History Sep 1, 2017 Free9% (47%)50,000 .. 100,0000%00:00 (00:00)
57 Maze Sounds Oct 3, 2016 $4.99N/A (N/A)0 .. 20,0000%00:00 (00:00)
58 Vault Cracker May 15, 2014 $4.99N/A (N/A)0 .. 20,0000%00:00 (00:00)
59 Ragnarok Journey Jun 12, 2017 Free5% (36%)50,000 .. 100,0000%00:00 (00:00)
60 iTownGamePlay UNIVERSE Sep 30, 2017 FreeN/A (N/A)20,000 .. 50,0000%00:00 (00:00)
61 BattleSpace Sep 27, 2013 N/A4% (32%)100,000 .. 200,0000%00:00 (00:00)

Owners of this game also own:

Access restricted.

This feature is only available to users with special access rights. Sorry.

If you want to proceed, you need to register or log in first and then back Steam Spy on Patreon. Look for Indie or Pro pledge.

Don't forget to use the same email as on Steam Spy!

Playtime distribution:

Access restricted.

This feature is only available to users with special access rights. Sorry.

If you want to proceed, you need to register or log in first and then back Steam Spy on Patreon. Look for Indie or Pro pledge.

Don't forget to use the same email as on Steam Spy!

Playtime (2 weeks):

Access restricted.

This feature is only available to users with special access rights. Sorry.

If you want to proceed, you need to register or log in first and then back Steam Spy on Patreon. Look for Indie or Pro pledge.

Don't forget to use the same email as on Steam Spy!

User reviews:

Login required.

Please register or log in to see this information.